sensor_id;sensor_type;location;lat;lon;timestamp;temperature;humidity
5621;DHT22;2832;50.864;12.186;2023-05-10T03:35:43;19.20;93.10
5621;DHT22;2832;50.864;12.186;2023-05-10T03:38:13;19.20;93.10
5621;DHT22;2832;50.864;12.186;2023-05-10T03:40:41;19.20;93.10
5621;DHT22;2832;50.864;12.186;2023-05-10T03:43:10;19.20;93.10
5621;DHT22;2832;50.864;12.186;2023-05-10T03:45:38;19.20;93.10
5621;DHT22;2832;50.864;12.186;2023-05-10T03:48:09;19.20;93.10
5621;DHT22;2832;50.864;12.186;2023-05-10T03:50:36;19.20;93.10
5621;DHT22;2832;50.864;12.186;2023-05-10T03:53:08;19.20;93.10
5621;DHT22;2832;50.864;12.186;2023-05-10T03:55:35;19.20;93.10
5621;DHT22;2832;50.864;12.186;2023-05-10T03:58:10;19.20;93.20
5621;DHT22;2832;50.864;12.186;2023-05-10T04:00:38;19.20;93.10
5621;DHT22;2832;50.864;12.186;2023-05-10T04:03:11;19.30;93.00
5621;DHT22;2832;50.864;12.186;2023-05-10T04:05:39;19.40;93.00
5621;DHT22;2832;50.864;12.186;2023-05-10T04:08:09;19.40;93.00
5621;DHT22;2832;50.864;12.186;2023-05-10T04:10:37;19.30;93.00
5621;DHT22;2832;50.864;12.186;2023-05-10T04:13:09;19.30;93.10
5621;DHT22;2832;50.864;12.186;2023-05-10T04:15:38;19.20;93.10
5621;DHT22;2832;50.864;12.186;2023-05-10T04:18:06;19.30;93.10
5621;DHT22;2832;50.864;12.186;2023-05-10T04:20:34;19.30;93.10
5621;DHT22;2832;50.864;12.186;2023-05-10T04:23:02;19.20;93.20
5621;DHT22;2832;50.864;12.186;2023-05-10T04:25:34;19.20;93.20
5621;DHT22;2832;50.864;12.186;2023-05-10T04:28:02;19.30;93.10
5621;DHT22;2832;50.864;12.186;2023-05-10T04:30:30;19.30;93.10
5621;DHT22;2832;50.864;12.186;2023-05-10T04:32:59;19.20;93.10
5621;DHT22;2832;50.864;12.186;2023-05-10T04:35:28;19.20;93.20
5621;DHT22;2832;50.864;12.186;2023-05-10T04:37:57;19.20;93.30
5621;DHT22;2832;50.864;12.186;2023-05-10T04:40:33;19.10;93.30
5621;DHT22;2832;50.864;12.186;2023-05-10T04:43:10;19.10;93.30
5621;DHT22;2832;50.864;12.186;2023-05-10T04:45:42;19.10;93.30
5621;DHT22;2832;50.864;12.186;2023-05-10T04:48:10;19.10;93.40
5621;DHT22;2832;50.864;12.186;2023-05-10T04:50:39;19.10;93.30
5621;DHT22;2832;50.864;12.186;2023-05-10T04:53:07;19.10;93.40
5621;DHT22;2832;50.864;12.186;2023-05-10T04:55:40;19.10;93.50
5621;DHT22;2832;50.864;12.186;2023-05-10T04:58:12;19.00;93.50
5621;DHT22;2832;50.864;12.186;2023-05-10T05:00:40;19.00;93.50
5621;DHT22;2832;50.864;12.186;2023-05-10T05:03:13;19.00;93.40
5621;DHT22;2832;50.864;12.186;2023-05-10T05:05:43;19.00;93.50
5621;DHT22;2832;50.864;12.186;2023-05-10T05:08:13;18.90;93.60
5621;DHT22;2832;50.864;12.186;2023-05-10T05:10:43;18.90;93.60
5621;DHT22;2832;50.864;12.186;2023-05-10T05:13:14;18.90;93.60
5621;DHT22;2832;50.864;12.186;2023-05-10T05:15:43;18.90;93.60
5621;DHT22;2832;50.864;12.186;2023-05-10T05:18:14;18.90;93.60
5621;DHT22;2832;50.864;12.186;2023-05-10T05:20:44;18.80;93.60
5621;DHT22;2832;50.864;12.186;2023-05-10T05:23:13;18.80;93.80
5621;DHT22;2832;50.864;12.186;2023-05-10T05:25:48;18.90;93.70
5621;DHT22;2832;50.864;12.186;2023-05-10T05:28:18;19.00;93.70
5621;DHT22;2832;50.864;12.186;2023-05-10T05:30:50;18.90;93.60
5621;DHT22;2832;50.864;12.186;2023-05-10T05:33:19;18.90;93.60
5621;DHT22;2832;50.864;12.186;2023-05-10T05:35:52;18.90;93.70
5621;DHT22;2832;50.864;12.186;2023-05-10T05:38:23;18.90;93.70
5621;DHT22;2832;50.864;12.186;2023-05-10T05:40:55;18.90;93.80
5621;DHT22;2832;50.864;12.186;2023-05-10T05:43:27;18.90;93.70
5621;DHT22;2832;50.864;12.186;2023-05-10T05:45:55;18.90;93.80
5621;DHT22;2832;50.864;12.186;2023-05-10T05:48:29;18.90;93.80
5621;DHT22;2832;50.864;12.186;2023-05-10T05:50:59;18.90;93.80
5621;DHT22;2832;50.864;12.186;2023-05-10T05:53:28;18.90;93.80
5621;DHT22;2832;50.864;12.186;2023-05-10T05:56:01;18.90;93.90
5621;DHT22;2832;50.864;12.186;2023-05-10T05:58:31;18.80;93.90
5621;DHT22;2832;50.864;12.186;2023-05-10T06:01:01;18.80;94.00
5621;DHT22;2832;50.864;12.186;2023-05-10T06:03:31;18.80;94.10
5621;DHT22;2832;50.864;12.186;2023-05-10T06:06:07;18.90;94.10
5621;DHT22;2832;50.864;12.186;2023-05-10T06:08:38;18.90;94.10
5621;DHT22;2832;50.864;12.186;2023-05-10T06:11:14;18.90;94.10
5621;DHT22;2832;50.864;12.186;2023-05-10T06:13:46;18.90;94.10
5621;DHT22;2832;50.864;12.186;2023-05-10T06:16:15;18.90;94.20
5621;DHT22;2832;50.864;12.186;2023-05-10T06:18:45;18.90;94.20
5621;DHT22;2832;50.864;12.186;2023-05-10T06:21:14;18.90;94.30
5621;DHT22;2832;50.864;12.186;2023-05-10T06:23:43;18.90;94.40
5621;DHT22;2832;50.864;12.186;2023-05-10T06:26:14;18.90;94.50
5621;DHT22;2832;50.864;12.186;2023-05-10T06:28:43;18.80;94.70
5621;DHT22;2832;50.864;12.186;2023-05-10T06:31:14;18.80;94.70
5621;DHT22;2832;50.864;12.186;2023-05-10T06:33:43;18.80;94.70
5621;DHT22;2832;50.864;12.186;2023-05-10T07:36:31;18.30;96.80
5621;DHT22;2832;50.864;12.186;2023-05-10T07:39:02;18.20;96.90
5621;DHT22;2832;50.864;12.186;2023-05-10T07:41:31;18.20;97.00
5621;DHT22;2832;50.864;12.186;2023-05-10T07:44:01;18.20;97.00
5621;DHT22;2832;50.864;12.186;2023-05-10T07:46:33;18.30;96.90
5621;DHT22;2832;50.864;12.186;2023-05-10T07:49:05;18.30;96.90
5621;DHT22;2832;50.864;12.186;2023-05-10T07:51:37;18.30;97.00
5621;DHT22;2832;50.864;12.186;2023-05-10T07:54:07;18.30;97.10
5621;DHT22;2832;50.864;12.186;2023-05-10T07:56:39;18.40;97.00
5621;DHT22;2832;50.864;12.186;2023-05-10T07:59:16;18.30;97.00
5621;DHT22;2832;50.864;12.186;2023-05-10T08:01:47;18.30;97.30
5621;DHT22;2832;50.864;12.186;2023-05-10T08:04:20;18.30;97.40
5621;DHT22;2832;50.864;12.186;2023-05-10T08:06:51;18.30;97.40
5621;DHT22;2832;50.864;12.186;2023-05-10T08:09:22;18.40;97.40
5621;DHT22;2832;50.864;12.186;2023-05-10T08:11:54;18.30;97.50
5621;DHT22;2832;50.864;12.186;2023-05-10T08:14:22;18.30;97.60
5621;DHT22;2832;50.864;12.186;2023-05-10T08:16:53;18.30;97.70
5621;DHT22;2832;50.864;12.186;2023-05-10T08:19:26;18.30;97.70
5621;DHT22;2832;50.864;12.186;2023-05-10T08:21:57;18.30;97.80
5621;DHT22;2832;50.864;12.186;2023-05-10T08:24:30;18.30;97.80
5621;DHT22;2832;50.864;12.186;2023-05-10T08:27:02;18.30;97.70
5621;DHT22;2832;50.864;12.186;2023-05-10T08:29:30;18.40;97.70
5621;DHT22;2832;50.864;12.186;2023-05-10T08:32:01;18.30;97.90
5621;DHT22;2832;50.864;12.186;2023-05-10T08:34:32;18.20;98.00
5621;DHT22;2832;50.864;12.186;2023-05-10T08:37:04;18.20;98.10
5621;DHT22;2832;50.864;12.186;2023-05-10T08:39:36;18.10;98.20
5621;DHT22;2832;50.864;12.186;2023-05-10T08:42:05;18.20;98.30
5621;DHT22;2832;50.864;12.186;2023-05-10T08:44:37;18.20;98.40
5621;DHT22;2832;50.864;12.186;2023-05-10T08:47:11;18.20;98.30
5621;DHT22;2832;50.864;12.186;2023-05-10T08:49:45;18.20;98.30
5621;DHT22;2832;50.864;12.186;2023-05-10T08:52:18;18.20;98.40
5621;DHT22;2832;50.864;12.186;2023-05-10T08:54:48;18.20;98.40
5621;DHT22;2832;50.864;12.186;2023-05-10T08:57:17;18.30;98.30
5621;DHT22;2832;50.864;12.186;2023-05-10T08:59:47;18.30;98.40
5621;DHT22;2832;50.864;12.186;2023-05-10T09:02:16;18.30;98.40
5621;DHT22;2832;50.864;12.186;2023-05-10T09:04:46;18.30;98.60
5621;DHT22;2832;50.864;12.186;2023-05-10T09:07:19;18.30;98.90
5621;DHT22;2832;50.864;12.186;2023-05-10T09:09:57;18.20;98.70
5621;DHT22;2832;50.864;12.186;2023-05-10T09:12:28;18.20;98.80
5621;DHT22;2832;50.864;12.186;2023-05-10T09:14:59;18.20;98.90
5621;DHT22;2832;50.864;12.186;2023-05-10T09:17:31;18.20;98.90
5621;DHT22;2832;50.864;12.186;2023-05-10T09:20:01;18.20;98.90
5621;DHT22;2832;50.864;12.186;2023-05-10T09:22:36;18.20;98.90
5621;DHT22;2832;50.864;12.186;2023-05-10T09:25:07;18.30;99.10
5621;DHT22;2832;50.864;12.186;2023-05-10T09:27:47;18.30;99.10
5621;DHT22;2832;50.864;12.186;2023-05-10T09:30:25;18.20;99.20
5621;DHT22;2832;50.864;12.186;2023-05-10T09:32:57;18.10;99.40
5621;DHT22;2832;50.864;12.186;2023-05-10T09:35:36;18.00;99.70
5621;DHT22;2832;50.864;12.186;2023-05-10T11:36:52;17.90;99.90
5621;DHT22;2832;50.864;12.186;2023-05-10T11:39:26;18.00;99.90
5621;DHT22;2832;50.864;12.186;2023-05-10T11:41:57;17.90;99.90
5621;DHT22;2832;50.864;12.186;2023-05-10T11:44:29;18.00;99.90
5621;DHT22;2832;50.864;12.186;2023-05-10T11:46:59;18.00;99.90
5621;DHT22;2832;50.864;12.186;2023-05-10T11:49:29;17.90;99.90
5621;DHT22;2832;50.864;12.186;2023-05-10T11:52:09;17.90;99.90
5621;DHT22;2832;50.864;12.186;2023-05-10T11:54:50;17.90;99.90
5621;DHT22;2832;50.864;12.186;2023-05-10T11:57:25;17.90;99.90
5621;DHT22;2832;50.864;12.186;2023-05-10T11:59:58;17.90;99.90
5621;DHT22;2832;50.864;12.186;2023-05-10T12:02:27;17.90;99.90
5621;DHT22;2832;50.864;12.186;2023-05-10T12:05:03;17.90;99.90
5621;DHT22;2832;50.864;12.186;2023-05-10T12:07:36;17.90;99.90
5621;DHT22;2832;50.864;12.186;2023-05-10T12:10:09;17.90;99.90
5621;DHT22;2832;50.864;12.186;2023-05-10T12:12:42;17.90;99.90
5621;DHT22;2832;50.864;12.186;2023-05-10T12:15:12;17.90;99.90
5621;DHT22;2832;50.864;12.186;2023-05-10T12:17:46;17.90;99.90
5621;DHT22;2832;50.864;12.186;2023-05-10T12:20:19;17.90;99.90
5621;DHT22;2832;50.864;12.186;2023-05-10T12:22:54;17.90;99.90
5621;DHT22;2832;50.864;12.186;2023-05-10T12:25:23;17.90;99.90
5621;DHT22;2832;50.864;12.186;2023-05-10T12:27:57;18.00;99.90
5621;DHT22;2832;50.864;12.186;2023-05-10T12:30:29;18.10;99.90
5621;DHT22;2832;50.864;12.186;2023-05-10T12:33:03;18.00;99.90
5621;DHT22;2832;50.864;12.186;2023-05-10T12:35:47;18.10;99.90
5621;DHT22;2832;50.864;12.186;2023-05-10T13:59:47;18.00;99.90
5621;DHT22;2832;50.864;12.186;2023-05-10T16:39:10;18.00;99.90
5621;DHT22;2832;50.864;12.186;2023-05-10T16:41:44;18.10;99.90
5621;DHT22;2832;50.864;12.186;2023-05-10T16:44:14;18.10;99.90
5621;DHT22;2832;50.864;12.186;2023-05-10T16:46:44;18.00;99.90
5621;DHT22;2832;50.864;12.186;2023-05-10T16:53:03;18.00;99.90
5621;DHT22;2832;50.864;12.186;2023-05-10T16:55:38;18.00;99.90
5621;DHT22;2832;50.864;12.186;2023-05-10T16:58:07;18.00;99.90
5621;DHT22;2832;50.864;12.186;2023-05-10T17:00:40;18.10;99.90
5621;DHT22;2832;50.864;12.186;2023-05-10T17:03:10;18.10;99.90
5621;DHT22;2832;50.864;12.186;2023-05-10T17:05:43;18.10;99.90
5621;DHT22;2832;50.864;12.186;2023-05-10T17:08:21;18.10;99.90
5621;DHT22;2832;50.864;12.186;2023-05-10T17:10:55;18.10;99.90
5621;DHT22;2832;50.864;12.186;2023-05-10T17:13:28;18.10;99.90
5621;DHT22;2832;50.864;12.186;2023-05-10T17:15:59;18.10;99.90
5621;DHT22;2832;50.864;12.186;2023-05-10T17:21:46;18.00;99.90
5621;DHT22;2832;50.864;12.186;2023-05-10T17:24:15;18.10;99.90
5621;DHT22;2832;50.864;12.186;2023-05-10T17:26:46;18.10;99.90
5621;DHT22;2832;50.864;12.186;2023-05-10T17:29:15;18.10;99.90
5621;DHT22;2832;50.864;12.186;2023-05-10T17:32:07;18.10;99.90
5621;DHT22;2832;50.864;12.186;2023-05-10T17:34:38;18.10;99.90
5621;DHT22;2832;50.864;12.186;2023-05-10T17:37:33;18.10;99.90
5621;DHT22;2832;50.864;12.186;2023-05-10T17:40:02;18.10;99.90
5621;DHT22;2832;50.864;12.186;2023-05-10T17:42:37;18.10;99.90
5621;DHT22;2832;50.864;12.186;2023-05-10T17:45:08;18.10;99.90
5621;DHT22;2832;50.864;12.186;2023-05-10T17:47:42;18.10;99.90
5621;DHT22;2832;50.864;12.186;2023-05-10T17:50:14;18.10;99.90
5621;DHT22;2832;50.864;12.186;2023-05-10T17:56:02;18.10;99.90
5621;DHT22;2832;50.864;12.186;2023-05-10T17:58:33;18.20;99.90
5621;DHT22;2832;50.864;12.186;2023-05-10T18:04:51;18.10;99.90
5621;DHT22;2832;50.864;12.186;2023-05-10T18:07:57;18.20;99.90
5621;DHT22;2832;50.864;12.186;2023-05-10T18:10:26;18.20;99.90
5621;DHT22;2832;50.864;12.186;2023-05-10T18:12:56;18.20;99.90
5621;DHT22;2832;50.864;12.186;2023-05-10T18:15:29;18.20;99.90
5621;DHT22;2832;50.864;12.186;2023-05-10T18:18:00;18.20;99.90
5621;DHT22;2832;50.864;12.186;2023-05-10T18:20:29;18.10;99.90
5621;DHT22;2832;50.864;12.186;2023-05-10T18:22:57;18.20;99.90
5621;DHT22;2832;50.864;12.186;2023-05-10T18:25:40;18.20;99.90
5621;DHT22;2832;50.864;12.186;2023-05-10T18:28:15;18.20;99.90
5621;DHT22;2832;50.864;12.186;2023-05-10T18:30:47;18.20;99.90
5621;DHT22;2832;50.864;12.186;2023-05-10T18:33:15;18.20;99.90
5621;DHT22;2832;50.864;12.186;2023-05-10T18:35:44;18.20;99.90
5621;DHT22;2832;50.864;12.186;2023-05-10T18:38:14;18.20;99.90
5621;DHT22;2832;50.864;12.186;2023-05-10T18:40:42;18.20;99.90
5621;DHT22;2832;50.864;12.186;2023-05-10T18:43:10;18.20;99.90
5621;DHT22;2832;50.864;12.186;2023-05-10T18:45:38;18.20;99.90
5621;DHT22;2832;50.864;12.186;2023-05-10T18:48:08;18.20;99.90
5621;DHT22;2832;50.864;12.186;2023-05-10T18:50:41;18.20;99.90
5621;DHT22;2832;50.864;12.186;2023-05-10T18:53:09;18.20;99.90
5621;DHT22;2832;50.864;12.186;2023-05-10T18:55:41;18.20;99.90
5621;DHT22;2832;50.864;12.186;2023-05-10T18:58:13;18.20;99.90
5621;DHT22;2832;50.864;12.186;2023-05-10T19:00:46;18.20;99.90
5621;DHT22;2832;50.864;12.186;2023-05-10T19:03:17;18.20;99.90
5621;DHT22;2832;50.864;12.186;2023-05-10T19:05:46;18.20;99.90
5621;DHT22;2832;50.864;12.186;2023-05-10T19:08:17;18.20;99.90
5621;DHT22;2832;50.864;12.186;2023-05-10T19:10:46;18.20;99.90
5621;DHT22;2832;50.864;12.186;2023-05-10T19:13:15;18.10;99.90
5621;DHT22;2832;50.864;12.186;2023-05-10T19:16:03;18.20;99.90
5621;DHT22;2832;50.864;12.186;2023-05-10T19:18:36;18.20;99.90
5621;DHT22;2832;50.864;12.186;2023-05-10T19:21:06;18.20;99.90
5621;DHT22;2832;50.864;12.186;2023-05-10T19:23:38;18.20;99.90
5621;DHT22;2832;50.864;12.186;2023-05-10T19:26:07;18.20;99.90
5621;DHT22;2832;50.864;12.186;2023-05-10T19:28:36;18.20;99.90
5621;DHT22;2832;50.864;12.186;2023-05-10T19:31:06;18.20;99.90
5621;DHT22;2832;50.864;12.186;2023-05-10T19:33:36;18.10;99.90
5621;DHT22;2832;50.864;12.186;2023-05-10T19:36:04;18.20;99.90
5621;DHT22;2832;50.864;12.186;2023-05-10T19:38:45;18.20;99.90
5621;DHT22;2832;50.864;12.186;2023-05-10T19:41:18;18.20;99.90
5621;DHT22;2832;50.864;12.186;2023-05-10T19:43:50;18.20;99.90
5621;DHT22;2832;50.864;12.186;2023-05-10T19:46:21;18.20;99.90
5621;DHT22;2832;50.864;12.186;2023-05-10T19:48:51;18.20;99.90
5621;DHT22;2832;50.864;12.186;2023-05-10T19:51:19;18.20;99.90
5621;DHT22;2832;50.864;12.186;2023-05-10T19:53:48;18.20;99.90
5621;DHT22;2832;50.864;12.186;2023-05-10T19:56:17;18.20;99.90
5621;DHT22;2832;50.864;12.186;2023-05-10T19:58:51;18.10;99.90
5621;DHT22;2832;50.864;12.186;2023-05-10T20:01:30;18.20;99.90
5621;DHT22;2832;50.864;12.186;2023-05-10T20:04:16;18.10;99.90
5621;DHT22;2832;50.864;12.186;2023-05-10T20:06:46;18.10;99.90
5621;DHT22;2832;50.864;12.186;2023-05-10T20:09:14;18.20;99.90
5621;DHT22;2832;50.864;12.186;2023-05-10T20:11:43;18.20;99.90
5621;DHT22;2832;50.864;12.186;2023-05-10T20:14:15;18.20;99.90
5621;DHT22;2832;50.864;12.186;2023-05-10T20:16:45;18.20;99.90
5621;DHT22;2832;50.864;12.186;2023-05-10T20:19:14;18.10;99.90
5621;DHT22;2832;50.864;12.186;2023-05-10T20:22:00;18.10;99.90
5621;DHT22;2832;50.864;12.186;2023-05-10T20:24:37;18.10;99.90
5621;DHT22;2832;50.864;12.186;2023-05-10T20:27:05;18.10;99.90
5621;DHT22;2832;50.864;12.186;2023-05-10T20:29:34;18.10;99.90
5621;DHT22;2832;50.864;12.186;2023-05-10T20:32:02;18.20;99.90
5621;DHT22;2832;50.864;12.186;2023-05-10T20:34:30;18.20;99.90
5621;DHT22;2832;50.864;12.186;2023-05-10T20:37:03;18.10;99.90
5621;DHT22;2832;50.864;12.186;2023-05-10T21:17:18;18.10;99.90
5621;DHT22;2832;50.864;12.186;2023-05-10T21:38:55;18.10;99.90
5621;DHT22;2832;50.864;12.186;2023-05-10T21:41:23;18.20;99.90
5621;DHT22;2832;50.864;12.186;2023-05-10T21:43:52;18.20;99.90
5621;DHT22;2832;50.864;12.186;2023-05-10T21:46:21;18.20;99.90
5621;DHT22;2832;50.864;12.186;2023-05-10T21:48:51;18.20;99.90
5621;DHT22;2832;50.864;12.186;2023-05-10T21:51:21;18.20;99.90
5621;DHT22;2832;50.864;12.186;2023-05-10T21:53:50;18.20;99.90
5621;DHT22;2832;50.864;12.186;2023-05-10T21:56:19;18.20;99.90
5621;DHT22;2832;50.864;12.186;2023-05-10T21:58:48;18.10;99.90
5621;DHT22;2832;50.864;12.186;2023-05-10T22:01:15;18.10;99.90
5621;DHT22;2832;50.864;12.186;2023-05-10T22:03:43;18.10;99.90
5621;DHT22;2832;50.864;12.186;2023-05-10T22:06:13;18.10;99.90
5621;DHT22;2832;50.864;12.186;2023-05-10T22:08:41;18.10;99.90
5621;DHT22;2832;50.864;12.186;2023-05-10T22:11:09;18.10;99.90
5621;DHT22;2832;50.864;12.186;2023-05-10T22:13:42;18.10;99.90
5621;DHT22;2832;50.864;12.186;2023-05-10T22:16:10;18.10;99.90
5621;DHT22;2832;50.864;12.186;2023-05-10T22:21:42;18.10;99.90
5621;DHT22;2832;50.864;12.186;2023-05-10T22:24:10;18.10;99.90
5621;DHT22;2832;50.864;12.186;2023-05-10T22:26:40;18.10;99.90
5621;DHT22;2832;50.864;12.186;2023-05-10T22:29:09;18.10;99.90
5621;DHT22;2832;50.864;12.186;2023-05-10T22:31:38;18.10;99.90
5621;DHT22;2832;50.864;12.186;2023-05-10T22:34:08;18.10;99.90
5621;DHT22;2832;50.864;12.186;2023-05-10T22:36:37;18.10;99.90
